sensor_id;sensor_type;location;lat;lon;timestamp;P1;durP1;ratioP1;P2;durP2;ratioP2
60239;SDS011;46102;39.012;-7.064;2023-06-10T00:00:11;4.30;;;1.20;;
60239;SDS011;46102;39.012;-7.064;2023-06-10T00:02:16;2.63;;;1.45;;
60239;SDS011;46102;39.012;-7.064;2023-06-10T00:04:17;5.93;;;1.27;;
60239;SDS011;46102;39.012;-7.064;2023-06-10T00:06:18;3.50;;;1.45;;
60239;SDS011;46102;39.012;-7.064;2023-06-10T00:08:18;1.92;;;1.35;;
60239;SDS011;46102;39.012;-7.064;2023-06-10T00:10:19;7.80;;;1.65;;
60239;SDS011;46102;39.012;-7.064;2023-06-10T00:12:20;6.60;;;1.77;;
60239;SDS011;46102;39.012;-7.064;2023-06-10T00:14:21;5.85;;;1.58;;
60239;SDS011;46102;39.012;-7.064;2023-06-10T00:16:22;5.47;;;1.63;;
60239;SDS011;46102;39.012;-7.064;2023-06-10T00:18:23;7.13;;;1.90;;
60239;SDS011;46102;39.012;-7.064;2023-06-10T00:20:23;7.63;;;1.60;;
60239;SDS011;46102;39.012;-7.064;2023-06-10T00:22:25;7.57;;;2.05;;
60239;SDS011;46102;39.012;-7.064;2023-06-10T00:24:29;4.68;;;1.88;;
60239;SDS011;46102;39.012;-7.064;2023-06-10T00:26:30;8.48;;;2.28;;
60239;SDS011;46102;39.012;-7.064;2023-06-10T00:28:32;6.72;;;1.60;;
60239;SDS011;46102;39.012;-7.064;2023-06-10T00:30:33;10.70;;;1.90;;
60239;SDS011;46102;39.012;-7.064;2023-06-10T00:32:34;5.22;;;1.70;;
60239;SDS011;46102;39.012;-7.064;2023-06-10T00:34:36;9.30;;;1.90;;
60239;SDS011;46102;39.012;-7.064;2023-06-10T00:36:37;9.93;;;2.15;;
60239;SDS011;46102;39.012;-7.064;2023-06-10T00:38:38;7.55;;;2.15;;
60239;SDS011;46102;39.012;-7.064;2023-06-10T00:40:40;8.88;;;2.03;;
60239;SDS011;46102;39.012;-7.064;2023-06-10T00:42:42;8.18;;;1.50;;
60239;SDS011;46102;39.012;-7.064;2023-06-10T00:44:43;6.88;;;2.10;;
60239;SDS011;46102;39.012;-7.064;2023-06-10T00:46:44;3.88;;;1.95;;
60239;SDS011;46102;39.012;-7.064;2023-06-10T00:48:45;9.90;;;2.55;;
60239;SDS011;46102;39.012;-7.064;2023-06-10T00:50:47;8.45;;;2.20;;
60239;SDS011;46102;39.012;-7.064;2023-06-10T00:52:48;4.80;;;1.77;;
60239;SDS011;46102;39.012;-7.064;2023-06-10T00:54:51;5.70;;;2.17;;
60239;SDS011;46102;39.012;-7.064;2023-06-10T00:56:52;8.07;;;2.17;;
60239;SDS011;46102;39.012;-7.064;2023-06-10T00:58:54;5.00;;;2.00;;
60239;SDS011;46102;39.012;-7.064;2023-06-10T01:00:55;8.77;;;3.20;;
60239;SDS011;46102;39.012;-7.064;2023-06-10T01:02:55;4.78;;;1.83;;
60239;SDS011;46102;39.012;-7.064;2023-06-10T01:04:57;5.82;;;1.90;;
60239;SDS011;46102;39.012;-7.064;2023-06-10T01:11:23;6.47;;;2.13;;
60239;SDS011;46102;39.012;-7.064;2023-06-10T01:13:28;4.43;;;1.70;;
60239;SDS011;46102;39.012;-7.064;2023-06-10T01:15:32;7.60;;;2.15;;
60239;SDS011;46102;39.012;-7.064;2023-06-10T01:17:37;5.40;;;2.08;;
60239;SDS011;46102;39.012;-7.064;2023-06-10T01:19:54;9.23;;;2.10;;
60239;SDS011;46102;39.012;-7.064;2023-06-10T01:21:58;6.72;;;1.70;;
60239;SDS011;46102;39.012;-7.064;2023-06-10T01:24:00;6.00;;;2.20;;
60239;SDS011;46102;39.012;-7.064;2023-06-10T01:26:06;6.07;;;2.03;;
60239;SDS011;46102;39.012;-7.064;2023-06-10T01:28:15;5.22;;;2.22;;
60239;SDS011;46102;39.012;-7.064;2023-06-10T01:30:22;7.55;;;2.40;;
60239;SDS011;46102;39.012;-7.064;2023-06-10T01:32:32;5.93;;;1.92;;
60239;SDS011;46102;39.012;-7.064;2023-06-10T01:34:37;9.13;;;2.70;;
60239;SDS011;46102;39.012;-7.064;2023-06-10T01:36:44;8.38;;;2.10;;
60239;SDS011;46102;39.012;-7.064;2023-06-10T01:38:48;5.38;;;1.63;;
60239;SDS011;46102;39.012;-7.064;2023-06-10T01:40:50;5.43;;;2.08;;
60239;SDS011;46102;39.012;-7.064;2023-06-10T01:42:54;6.57;;;2.88;;
60239;SDS011;46102;39.012;-7.064;2023-06-10T01:44:55;5.25;;;2.15;;
60239;SDS011;46102;39.012;-7.064;2023-06-10T01:46:55;8.82;;;2.30;;
60239;SDS011;46102;39.012;-7.064;2023-06-10T01:48:56;5.63;;;2.28;;
60239;SDS011;46102;39.012;-7.064;2023-06-10T01:50:57;3.65;;;1.83;;
60239;SDS011;46102;39.012;-7.064;2023-06-10T01:52:59;4.85;;;2.10;;
60239;SDS011;46102;39.012;-7.064;2023-06-10T01:55:01;7.05;;;2.88;;
60239;SDS011;46102;39.012;-7.064;2023-06-10T01:57:02;3.70;;;2.47;;
60239;SDS011;46102;39.012;-7.064;2023-06-10T01:59:03;4.00;;;2.42;;
60239;SDS011;46102;39.012;-7.064;2023-06-10T02:01:04;7.00;;;2.90;;
60239;SDS011;46102;39.012;-7.064;2023-06-10T02:03:04;7.15;;;3.15;;
60239;SDS011;46102;39.012;-7.064;2023-06-10T02:05:05;8.07;;;4.10;;
60239;SDS011;46102;39.012;-7.064;2023-06-10T02:07:06;7.63;;;4.13;;
60239;SDS011;46102;39.012;-7.064;2023-06-10T02:09:07;13.23;;;4.68;;
60239;SDS011;46102;39.012;-7.064;2023-06-10T02:11:08;10.80;;;4.47;;
60239;SDS011;46102;39.012;-7.064;2023-06-10T02:13:09;10.13;;;4.57;;
60239;SDS011;46102;39.012;-7.064;2023-06-10T02:15:10;8.30;;;4.53;;
60239;SDS011;46102;39.012;-7.064;2023-06-10T02:17:10;7.97;;;4.20;;
60239;SDS011;46102;39.012;-7.064;2023-06-10T02:19:16;9.13;;;4.55;;
60239;SDS011;46102;39.012;-7.064;2023-06-10T02:21:17;8.25;;;4.65;;
60239;SDS011;46102;39.012;-7.064;2023-06-10T02:23:18;12.25;;;4.97;;
60239;SDS011;46102;39.012;-7.064;2023-06-10T02:25:18;8.50;;;4.65;;
60239;SDS011;46102;39.012;-7.064;2023-06-10T02:27:20;12.55;;;5.70;;
60239;SDS011;46102;39.012;-7.064;2023-06-10T02:29:21;10.77;;;5.35;;
60239;SDS011;46102;39.012;-7.064;2023-06-10T02:31:22;12.57;;;5.60;;
60239;SDS011;46102;39.012;-7.064;2023-06-10T02:33:24;10.27;;;6.03;;
60239;SDS011;46102;39.012;-7.064;2023-06-10T02:35:25;8.60;;;4.07;;
60239;SDS011;46102;39.012;-7.064;2023-06-10T02:37:27;9.27;;;4.18;;
60239;SDS011;46102;39.012;-7.064;2023-06-10T02:39:29;5.95;;;4.20;;
60239;SDS011;46102;39.012;-7.064;2023-06-10T02:41:30;8.10;;;4.28;;
60239;SDS011;46102;39.012;-7.064;2023-06-10T02:43:33;6.55;;;3.70;;
60239;SDS011;46102;39.012;-7.064;2023-06-10T02:45:34;8.38;;;3.80;;
60239;SDS011;46102;39.012;-7.064;2023-06-10T02:47:37;10.73;;;3.97;;
60239;SDS011;46102;39.012;-7.064;2023-06-10T02:49:40;8.55;;;4.22;;
60239;SDS011;46102;39.012;-7.064;2023-06-10T02:51:43;8.63;;;4.25;;
60239;SDS011;46102;39.012;-7.064;2023-06-10T02:53:44;8.80;;;4.18;;
60239;SDS011;46102;39.012;-7.064;2023-06-10T02:55:47;12.02;;;4.15;;
60239;SDS011;46102;39.012;-7.064;2023-06-10T02:57:50;6.68;;;4.40;;
60239;SDS011;46102;39.012;-7.064;2023-06-10T02:59:53;10.07;;;4.85;;
60239;SDS011;46102;39.012;-7.064;2023-06-10T03:01:54;7.30;;;4.22;;
60239;SDS011;46102;39.012;-7.064;2023-06-10T03:03:56;11.98;;;3.63;;
60239;SDS011;46102;39.012;-7.064;2023-06-10T03:05:57;8.45;;;3.58;;
60239;SDS011;46102;39.012;-7.064;2023-06-10T03:08:00;10.15;;;3.22;;
60239;SDS011;46102;39.012;-7.064;2023-06-10T03:10:01;11.63;;;4.60;;
60239;SDS011;46102;39.012;-7.064;2023-06-10T03:12:02;9.23;;;4.82;;
60239;SDS011;46102;39.012;-7.064;2023-06-10T03:14:08;8.75;;;5.65;;
60239;SDS011;46102;39.012;-7.064;2023-06-10T03:16:09;7.15;;;5.30;;
60239;SDS011;46102;39.012;-7.064;2023-06-10T03:21:22;13.27;;;6.47;;
60239;SDS011;46102;39.012;-7.064;2023-06-10T03:23:23;21.73;;;6.80;;
60239;SDS011;46102;39.012;-7.064;2023-06-10T03:25:24;10.93;;;5.88;;
60239;SDS011;46102;39.012;-7.064;2023-06-10T03:27:27;10.55;;;6.95;;
60239;SDS011;46102;39.012;-7.064;2023-06-10T03:29:32;10.07;;;6.85;;
60239;SDS011;46102;39.012;-7.064;2023-06-10T03:31:33;9.52;;;6.05;;
60239;SDS011;46102;39.012;-7.064;2023-06-10T03:33:35;9.57;;;4.95;;
60239;SDS011;46102;39.012;-7.064;2023-06-10T03:35:36;10.05;;;4.22;;
60239;SDS011;46102;39.012;-7.064;2023-06-10T03:37:39;8.18;;;4.15;;
60239;SDS011;46102;39.012;-7.064;2023-06-10T03:39:40;5.55;;;3.85;;
60239;SDS011;46102;39.012;-7.064;2023-06-10T03:41:42;10.77;;;3.28;;
60239;SDS011;46102;39.012;-7.064;2023-06-10T03:43:44;11.05;;;4.68;;
60239;SDS011;46102;39.012;-7.064;2023-06-10T03:45:47;7.47;;;2.60;;
60239;SDS011;46102;39.012;-7.064;2023-06-10T03:47:49;8.80;;;3.17;;
60239;SDS011;46102;39.012;-7.064;2023-06-10T03:49:55;11.50;;;3.08;;
60239;SDS011;46102;39.012;-7.064;2023-06-10T03:51:57;13.52;;;3.00;;
60239;SDS011;46102;39.012;-7.064;2023-06-10T03:53:58;9.00;;;2.25;;
60239;SDS011;46102;39.012;-7.064;2023-06-10T03:55:59;6.20;;;2.22;;
60239;SDS011;46102;39.012;-7.064;2023-06-10T03:58:00;5.80;;;2.50;;
60239;SDS011;46102;39.012;-7.064;2023-06-10T04:00:01;7.55;;;2.47;;
60239;SDS011;46102;39.012;-7.064;2023-06-10T04:02:15;7.50;;;3.13;;
60239;SDS011;46102;39.012;-7.064;2023-06-10T04:04:17;4.85;;;2.35;;
60239;SDS011;46102;39.012;-7.064;2023-06-10T04:06:19;7.22;;;2.60;;
60239;SDS011;46102;39.012;-7.064;2023-06-10T04:08:22;16.70;;;4.27;;
60239;SDS011;46102;39.012;-7.064;2023-06-10T04:10:23;9.50;;;2.72;;
60239;SDS011;46102;39.012;-7.064;2023-06-10T04:12:24;9.90;;;2.65;;
60239;SDS011;46102;39.012;-7.064;2023-06-10T04:14:25;4.80;;;3.20;;
60239;SDS011;46102;39.012;-7.064;2023-06-10T04:16:26;9.57;;;2.90;;
60239;SDS011;46102;39.012;-7.064;2023-06-10T04:18:27;9.68;;;2.67;;
60239;SDS011;46102;39.012;-7.064;2023-06-10T04:20:30;9.98;;;3.78;;
60239;SDS011;46102;39.012;-7.064;2023-06-10T04:22:32;6.20;;;2.55;;
60239;SDS011;46102;39.012;-7.064;2023-06-10T04:24:32;8.00;;;2.55;;
60239;SDS011;46102;39.012;-7.064;2023-06-10T04:26:37;12.70;;;3.28;;
60239;SDS011;46102;39.012;-7.064;2023-06-10T04:28:39;5.70;;;2.40;;
60239;SDS011;46102;39.012;-7.064;2023-06-10T04:30:39;10.38;;;2.70;;
60239;SDS011;46102;39.012;-7.064;2023-06-10T04:32:42;9.60;;;2.67;;
60239;SDS011;46102;39.012;-7.064;2023-06-10T04:34:48;8.95;;;3.50;;
60239;SDS011;46102;39.012;-7.064;2023-06-10T04:36:50;7.15;;;2.45;;
60239;SDS011;46102;39.012;-7.064;2023-06-10T04:38:52;4.20;;;2.10;;
60239;SDS011;46102;39.012;-7.064;2023-06-10T04:40:53;11.48;;;2.72;;
60239;SDS011;46102;39.012;-7.064;2023-06-10T04:42:56;9.48;;;2.92;;
60239;SDS011;46102;39.012;-7.064;2023-06-10T04:44:57;6.82;;;2.90;;
60239;SDS011;46102;39.012;-7.064;2023-06-10T04:46:58;7.85;;;2.97;;
60239;SDS011;46102;39.012;-7.064;2023-06-10T04:48:59;7.47;;;2.70;;
60239;SDS011;46102;39.012;-7.064;2023-06-10T04:51:00;10.27;;;3.75;;
60239;SDS011;46102;39.012;-7.064;2023-06-10T04:53:01;6.47;;;2.63;;
60239;SDS011;46102;39.012;-7.064;2023-06-10T04:55:05;4.65;;;2.83;;
60239;SDS011;46102;39.012;-7.064;2023-06-10T04:57:07;8.88;;;3.55;;
60239;SDS011;46102;39.012;-7.064;2023-06-10T04:59:08;10.43;;;3.47;;
60239;SDS011;46102;39.012;-7.064;2023-06-10T05:01:09;10.57;;;4.05;;
60239;SDS011;46102;39.012;-7.064;2023-06-10T05:03:09;14.88;;;4.03;;
60239;SDS011;46102;39.012;-7.064;2023-06-10T05:05:10;15.27;;;3.80;;
60239;SDS011;46102;39.012;-7.064;2023-06-10T05:07:11;8.65;;;3.50;;
60239;SDS011;46102;39.012;-7.064;2023-06-10T05:09:12;6.47;;;3.30;;
60239;SDS011;46102;39.012;-7.064;2023-06-10T05:11:13;11.85;;;4.85;;
60239;SDS011;46102;39.012;-7.064;2023-06-10T05:13:14;12.60;;;4.25;;
60239;SDS011;46102;39.012;-7.064;2023-06-10T05:15:14;15.75;;;4.55;;
60239;SDS011;46102;39.012;-7.064;2023-06-10T05:17:15;10.77;;;3.35;;
60239;SDS011;46102;39.012;-7.064;2023-06-10T05:19:16;11.18;;;3.72;;
60239;SDS011;46102;39.012;-7.064;2023-06-10T05:21:17;8.40;;;3.25;;
60239;SDS011;46102;39.012;-7.064;2023-06-10T05:23:18;17.73;;;4.72;;
60239;SDS011;46102;39.012;-7.064;2023-06-10T05:25:19;11.82;;;3.38;;
60239;SDS011;46102;39.012;-7.064;2023-06-10T05:27:20;11.48;;;3.65;;
60239;SDS011;46102;39.012;-7.064;2023-06-10T05:29:22;11.63;;;3.28;;
60239;SDS011;46102;39.012;-7.064;2023-06-10T05:31:23;8.75;;;2.97;;
60239;SDS011;46102;39.012;-7.064;2023-06-10T05:33:24;11.20;;;3.17;;
60239;SDS011;46102;39.012;-7.064;2023-06-10T05:35:25;10.02;;;3.05;;
60239;SDS011;46102;39.012;-7.064;2023-06-10T05:37:25;8.57;;;2.53;;
60239;SDS011;46102;39.012;-7.064;2023-06-10T05:39:26;6.13;;;2.45;;
60239;SDS011;46102;39.012;-7.064;2023-06-10T05:41:27;9.40;;;2.85;;
60239;SDS011;46102;39.012;-7.064;2023-06-10T05:43:28;5.65;;;2.85;;
60239;SDS011;46102;39.012;-7.064;2023-06-10T05:45:29;5.18;;;2.63;;
60239;SDS011;46102;39.012;-7.064;2023-06-10T05:47:29;14.00;;;4.03;;
60239;SDS011;46102;39.012;-7.064;2023-06-10T05:49:30;10.15;;;3.30;;
60239;SDS011;46102;39.012;-7.064;2023-06-10T05:51:31;11.65;;;3.10;;
60239;SDS011;46102;39.012;-7.064;2023-06-10T05:53:32;7.15;;;2.90;;
60239;SDS011;46102;39.012;-7.064;2023-06-10T05:55:33;6.90;;;3.00;;
60239;SDS011;46102;39.012;-7.064;2023-06-10T05:57:33;9.32;;;3.05;;
60239;SDS011;46102;39.012;-7.064;2023-06-10T05:59:34;10.57;;;3.25;;
60239;SDS011;46102;39.012;-7.064;2023-06-10T06:01:35;10.50;;;3.03;;
60239;SDS011;46102;39.012;-7.064;2023-06-10T06:03:36;5.07;;;2.80;;
60239;SDS011;46102;39.012;-7.064;2023-06-10T06:05:37;11.18;;;4.07;;
60239;SDS011;46102;39.012;-7.064;2023-06-10T06:07:38;10.98;;;3.10;;
60239;SDS011;46102;39.012;-7.064;2023-06-10T06:09:39;7.32;;;3.50;;
60239;SDS011;46102;39.012;-7.064;2023-06-10T06:11:40;7.72;;;2.85;;
60239;SDS011;46102;39.012;-7.064;2023-06-10T06:13:41;7.65;;;2.70;;
60239;SDS011;46102;39.012;-7.064;2023-06-10T06:15:42;8.48;;;3.13;;
60239;SDS011;46102;39.012;-7.064;2023-06-10T06:17:43;8.65;;;3.58;;
60239;SDS011;46102;39.012;-7.064;2023-06-10T06:19:43;9.38;;;3.20;;
60239;SDS011;46102;39.012;-7.064;2023-06-10T06:21:45;17.15;;;3.55;;
60239;SDS011;46102;39.012;-7.064;2023-06-10T06:23:46;7.18;;;3.30;;
60239;SDS011;46102;39.012;-7.064;2023-06-10T06:25:46;7.47;;;3.20;;
60239;SDS011;46102;39.012;-7.064;2023-06-10T06:27:47;13.68;;;3.78;;
60239;SDS011;46102;39.012;-7.064;2023-06-10T06:29:48;6.13;;;3.67;;
60239;SDS011;46102;39.012;-7.064;2023-06-10T06:31:49;12.95;;;3.85;;
60239;SDS011;46102;39.012;-7.064;2023-06-10T06:33:50;12.20;;;3.92;;
60239;SDS011;46102;39.012;-7.064;2023-06-10T06:35:50;12.68;;;6.00;;
60239;SDS011;46102;39.012;-7.064;2023-06-10T06:37:51;12.05;;;4.03;;
60239;SDS011;46102;39.012;-7.064;2023-06-10T06:39:58;4.97;;;3.05;;
60239;SDS011;46102;39.012;-7.064;2023-06-10T06:41:59;7.45;;;2.70;;
60239;SDS011;46102;39.012;-7.064;2023-06-10T06:44:16;6.28;;;2.55;;
60239;SDS011;46102;39.012;-7.064;2023-06-10T06:46:18;3.75;;;2.38;;
60239;SDS011;46102;39.012;-7.064;2023-06-10T06:48:19;8.65;;;2.63;;
60239;SDS011;46102;39.012;-7.064;2023-06-10T06:50:19;9.25;;;3.15;;
60239;SDS011;46102;39.012;-7.064;2023-06-10T06:52:20;12.15;;;2.97;;
60239;SDS011;46102;39.012;-7.064;2023-06-10T06:54:22;9.75;;;3.53;;
60239;SDS011;46102;39.012;-7.064;2023-06-10T06:56:23;8.05;;;3.22;;
60239;SDS011;46102;39.012;-7.064;2023-06-10T06:58:24;7.15;;;3.20;;
60239;SDS011;46102;39.012;-7.064;2023-06-10T07:00:24;5.68;;;3.33;;
60239;SDS011;46102;39.012;-7.064;2023-06-10T07:02:25;6.38;;;2.88;;
60239;SDS011;46102;39.012;-7.064;2023-06-10T07:04:26;7.75;;;3.72;;
60239;SDS011;46102;39.012;-7.064;2023-06-10T07:06:27;4.05;;;2.80;;
60239;SDS011;46102;39.012;-7.064;2023-06-10T07:08:28;5.55;;;2.78;;
60239;SDS011;46102;39.012;-7.064;2023-06-10T07:10:29;7.40;;;3.38;;
60239;SDS011;46102;39.012;-7.064;2023-06-10T07:12:29;12.55;;;3.72;;
60239;SDS011;46102;39.012;-7.064;2023-06-10T07:14:32;9.80;;;2.67;;
60239;SDS011;46102;39.012;-7.064;2023-06-10T07:16:33;7.22;;;2.63;;
60239;SDS011;46102;39.012;-7.064;2023-06-10T07:18:34;8.38;;;2.63;;
60239;SDS011;46102;39.012;-7.064;2023-06-10T07:20:35;5.63;;;3.50;;
60239;SDS011;46102;39.012;-7.064;2023-06-10T07:22:35;11.00;;;3.03;;
60239;SDS011;46102;39.012;-7.064;2023-06-10T07:24:36;7.05;;;3.08;;
60239;SDS011;46102;39.012;-7.064;2023-06-10T07:26:37;4.43;;;2.53;;
60239;SDS011;46102;39.012;-7.064;2023-06-10T07:28:38;7.97;;;2.65;;
60239;SDS011;46102;39.012;-7.064;2023-06-10T07:30:40;10.77;;;2.25;;
60239;SDS011;46102;39.012;-7.064;2023-06-10T07:32:41;6.72;;;2.42;;
60239;SDS011;46102;39.012;-7.064;2023-06-10T07:34:41;8.02;;;2.53;;
60239;SDS011;46102;39.012;-7.064;2023-06-10T07:36:42;9.55;;;2.95;;
60239;SDS011;46102;39.012;-7.064;2023-06-10T07:38:43;6.88;;;2.75;;
60239;SDS011;46102;39.012;-7.064;2023-06-10T07:40:44;4.35;;;2.30;;
60239;SDS011;46102;39.012;-7.064;2023-06-10T07:42:45;4.22;;;2.72;;
60239;SDS011;46102;39.012;-7.064;2023-06-10T07:44:45;6.50;;;2.47;;
60239;SDS011;46102;39.012;-7.064;2023-06-10T07:46:47;6.95;;;3.10;;
60239;SDS011;46102;39.012;-7.064;2023-06-10T07:48:48;7.35;;;3.20;;
60239;SDS011;46102;39.012;-7.064;2023-06-10T07:50:49;6.78;;;2.58;;
60239;SDS011;46102;39.012;-7.064;2023-06-10T07:52:50;11.15;;;3.05;;
60239;SDS011;46102;39.012;-7.064;2023-06-10T07:54:51;6.18;;;2.70;;
60239;SDS011;46102;39.012;-7.064;2023-06-10T07:56:52;4.72;;;2.67;;
60239;SDS011;46102;39.012;-7.064;2023-06-10T07:58:53;11.52;;;3.10;;
60239;SDS011;46102;39.012;-7.064;2023-06-10T08:00:54;10.07;;;3.60;;
60239;SDS011;46102;39.012;-7.064;2023-06-10T08:02:55;9.82;;;2.45;;
60239;SDS011;46102;39.012;-7.064;2023-06-10T08:04:55;7.07;;;2.40;;
60239;SDS011;46102;39.012;-7.064;2023-06-10T08:06:56;6.22;;;2.65;;
60239;SDS011;46102;39.012;-7.064;2023-06-10T08:08:57;4.13;;;2.33;;
60239;SDS011;46102;39.012;-7.064;2023-06-10T08:10:58;4.47;;;2.15;;
60239;SDS011;46102;39.012;-7.064;2023-06-10T08:12:59;5.72;;;2.55;;
60239;SDS011;46102;39.012;-7.064;2023-06-10T08:15:00;9.75;;;2.45;;
60239;SDS011;46102;39.012;-7.064;2023-06-10T08:17:01;5.25;;;1.65;;
60239;SDS011;46102;39.012;-7.064;2023-06-10T08:19:03;4.25;;;1.80;;
60239;SDS011;46102;39.012;-7.064;2023-06-10T08:21:04;3.92;;;2.20;;
60239;SDS011;46102;39.012;-7.064;2023-06-10T08:23:05;4.53;;;2.17;;
60239;SDS011;46102;39.012;-7.064;2023-06-10T08:25:06;8.48;;;2.97;;
60239;SDS011;46102;39.012;-7.064;2023-06-10T08:27:08;9.25;;;2.72;;
60239;SDS011;46102;39.012;-7.064;2023-06-10T08:29:11;5.35;;;2.30;;
60239;SDS011;46102;39.012;-7.064;2023-06-10T08:31:12;3.80;;;1.87;;
60239;SDS011;46102;39.012;-7.064;2023-06-10T08:33:13;6.18;;;2.03;;
60239;SDS011;46102;39.012;-7.064;2023-06-10T08:35:13;7.88;;;2.30;;
60239;SDS011;46102;39.012;-7.064;2023-06-10T08:37:14;5.80;;;2.80;;
60239;SDS011;46102;39.012;-7.064;2023-06-10T08:39:15;4.13;;;2.53;;
60239;SDS011;46102;39.012;-7.064;2023-06-10T08:41:17;8.68;;;2.88;;
60239;SDS011;46102;39.012;-7.064;2023-06-10T08:43:22;5.35;;;2.20;;
60239;SDS011;46102;39.012;-7.064;2023-06-10T08:45:29;12.32;;;3.65;;
60239;SDS011;46102;39.012;-7.064;2023-06-10T08:47:33;6.82;;;2.38;;
60239;SDS011;46102;39.012;-7.064;2023-06-10T08:49:38;3.65;;;2.00;;
60239;SDS011;46102;39.012;-7.064;2023-06-10T08:51:43;10.07;;;2.22;;
60239;SDS011;46102;39.012;-7.064;2023-06-10T08:53:49;4.53;;;2.25;;
60239;SDS011;46102;39.012;-7.064;2023-06-10T08:55:53;5.97;;;2.70;;
60239;SDS011;46102;39.012;-7.064;2023-06-10T08:57:59;3.15;;;2.35;;
60239;SDS011;46102;39.012;-7.064;2023-06-10T09:00:01;4.65;;;2.25;;
60239;SDS011;46102;39.012;-7.064;2023-06-10T09:02:03;12.48;;;3.65;;
60239;SDS011;46102;39.012;-7.064;2023-06-10T09:04:05;6.53;;;2.65;;
60239;SDS011;46102;39.012;-7.064;2023-06-10T09:06:06;7.53;;;2.33;;
60239;SDS011;46102;39.012;-7.064;2023-06-10T09:08:07;7.10;;;2.28;;
60239;SDS011;46102;39.012;-7.064;2023-06-10T09:10:09;5.47;;;2.15;;
60239;SDS011;46102;39.012;-7.064;2023-06-10T09:12:13;3.03;;;2.00;;
60239;SDS011;46102;39.012;-7.064;2023-06-10T09:14:14;4.97;;;2.25;;
60239;SDS011;46102;39.012;-7.064;2023-06-10T09:16:16;3.30;;;2.20;;
60239;SDS011;46102;39.012;-7.064;2023-06-10T09:18:17;7.05;;;1.95;;
60239;SDS011;46102;39.012;-7.064;2023-06-10T09:20:18;7.05;;;2.35;;
60239;SDS011;46102;39.012;-7.064;2023-06-10T09:22:19;6.18;;;2.22;;
60239;SDS011;46102;39.012;-7.064;2023-06-10T09:24:23;3.03;;;1.83;;
60239;SDS011;46102;39.012;-7.064;2023-06-10T09:26:27;4.78;;;2.70;;
60239;SDS011;46102;39.012;-7.064;2023-06-10T09:28:30;5.03;;;2.25;;
60239;SDS011;46102;39.012;-7.064;2023-06-10T09:30:31;4.88;;;2.10;;
60239;SDS011;46102;39.012;-7.064;2023-06-10T09:32:37;8.07;;;2.30;;
60239;SDS011;46102;39.012;-7.064;2023-06-10T09:34:38;5.22;;;2.15;;
60239;SDS011;46102;39.012;-7.064;2023-06-10T09:36:40;3.40;;;1.98;;
60239;SDS011;46102;39.012;-7.064;2023-06-10T09:38:41;4.13;;;2.15;;
60239;SDS011;46102;39.012;-7.064;2023-06-10T09:40:49;4.22;;;1.92;;
60239;SDS011;46102;39.012;-7.064;2023-06-10T09:42:54;6.03;;;1.75;;
60239;SDS011;46102;39.012;-7.064;2023-06-10T09:44:57;7.70;;;1.85;;
60239;SDS011;46102;39.012;-7.064;2023-06-10T09:46:57;4.70;;;1.90;;
60239;SDS011;46102;39.012;-7.064;2023-06-10T09:48:59;5.05;;;1.88;;
60239;SDS011;46102;39.012;-7.064;2023-06-10T09:51:00;5.85;;;1.85;;
60239;SDS011;46102;39.012;-7.064;2023-06-10T09:53:01;2.80;;;1.63;;
60239;SDS011;46102;39.012;-7.064;2023-06-10T09:55:07;2.70;;;1.73;;
60239;SDS011;46102;39.012;-7.064;2023-06-10T09:57:08;6.20;;;1.88;;
60239;SDS011;46102;39.012;-7.064;2023-06-10T09:59:10;3.47;;;1.40;;
60239;SDS011;46102;39.012;-7.064;2023-06-10T10:01:12;6.43;;;1.70;;
60239;SDS011;46102;39.012;-7.064;2023-06-10T10:03:21;4.70;;;1.13;;
60239;SDS011;46102;39.012;-7.064;2023-06-10T10:05:23;3.28;;;1.42;;
60239;SDS011;46102;39.012;-7.064;2023-06-10T10:07:24;4.68;;;1.80;;
60239;SDS011;46102;39.012;-7.064;2023-06-10T10:09:25;2.72;;;1.45;;
60239;SDS011;46102;39.012;-7.064;2023-06-10T10:11:26;3.00;;;1.27;;
60239;SDS011;46102;39.012;-7.064;2023-06-10T10:13:27;3.58;;;1.30;;
60239;SDS011;46102;39.012;-7.064;2023-06-10T10:15:29;1.65;;;1.27;;
60239;SDS011;46102;39.012;-7.064;2023-06-10T10:17:32;4.05;;;1.55;;
60239;SDS011;46102;39.012;-7.064;2023-06-10T10:19:37;3.70;;;1.30;;
60239;SDS011;46102;39.012;-7.064;2023-06-10T10:21:47;3.15;;;1.30;;
60239;SDS011;46102;39.012;-7.064;2023-06-10T10:25:56;2.60;;;1.30;;
60239;SDS011;46102;39.012;-7.064;2023-06-10T10:28:10;2.33;;;1.60;;
60239;SDS011;46102;39.012;-7.064;2023-06-10T10:30:12;1.88;;;1.02;;
60239;SDS011;46102;39.012;-7.064;2023-06-10T10:32:14;3.58;;;1.67;;
60239;SDS011;46102;39.012;-7.064;2023-06-10T10:34:18;2.00;;;1.15;;
60239;SDS011;46102;39.012;-7.064;2023-06-10T10:36:25;5.28;;;1.77;;
60239;SDS011;46102;39.012;-7.064;2023-06-10T10:38:27;2.42;;;1.73;;
60239;SDS011;46102;39.012;-7.064;2023-06-10T10:40:28;4.07;;;1.30;;
60239;SDS011;46102;39.012;-7.064;2023-06-10T10:42:30;4.00;;;1.38;;
60239;SDS011;46102;39.012;-7.064;2023-06-10T10:44:31;4.53;;;1.20;;
60239;SDS011;46102;39.012;-7.064;2023-06-10T10:46:42;2.47;;;1.63;;
60239;SDS011;46102;39.012;-7.064;2023-06-10T10:48:44;3.35;;;1.30;;
60239;SDS011;46102;39.012;-7.064;2023-06-10T10:50:55;6.40;;;1.48;;
60239;SDS011;46102;39.012;-7.064;2023-06-10T10:53:02;4.38;;;1.63;;
60239;SDS011;46102;39.012;-7.064;2023-06-10T10:55:03;3.30;;;1.60;;
60239;SDS011;46102;39.012;-7.064;2023-06-10T10:59:20;5.30;;;1.67;;
60239;SDS011;46102;39.012;-7.064;2023-06-10T11:01:21;4.05;;;1.35;;
60239;SDS011;46102;39.012;-7.064;2023-06-10T11:03:22;5.00;;;1.60;;
60239;SDS011;46102;39.012;-7.064;2023-06-10T11:05:31;2.85;;;1.17;;
60239;SDS011;46102;39.012;-7.064;2023-06-10T11:07:37;5.50;;;2.08;;
60239;SDS011;46102;39.012;-7.064;2023-06-10T11:09:38;3.83;;;1.52;;
60239;SDS011;46102;39.012;-7.064;2023-06-10T11:11:59;2.50;;;1.30;;
60239;SDS011;46102;39.012;-7.064;2023-06-10T11:16:09;3.22;;;1.35;;
60239;SDS011;46102;39.012;-7.064;2023-06-10T11:18:22;1.63;;;1.50;;
60239;SDS011;46102;39.012;-7.064;2023-06-10T11:22:58;4.50;;;1.55;;
60239;SDS011;46102;39.012;-7.064;2023-06-10T11:25:01;2.35;;;1.48;;
60239;SDS011;46102;39.012;-7.064;2023-06-10T11:27:14;2.15;;;1.10;;
60239;SDS011;46102;39.012;-7.064;2023-06-10T11:29:18;4.07;;;1.50;;
60239;SDS011;46102;39.012;-7.064;2023-06-10T11:31:21;2.75;;;1.20;;
60239;SDS011;46102;39.012;-7.064;2023-06-10T11:33:23;3.13;;;1.35;;
60239;SDS011;46102;39.012;-7.064;2023-06-10T11:35:25;3.08;;;1.30;;
60239;SDS011;46102;39.012;-7.064;2023-06-10T11:37:27;3.17;;;1.20;;
60239;SDS011;46102;39.012;-7.064;2023-06-10T11:39:28;2.60;;;1.10;;
60239;SDS011;46102;39.012;-7.064;2023-06-10T11:41:30;2.58;;;1.20;;
60239;SDS011;46102;39.012;-7.064;2023-06-10T11:43:31;4.72;;;1.40;;
60239;SDS011;46102;39.012;-7.064;2023-06-10T11:45:33;6.72;;;2.17;;
60239;SDS011;46102;39.012;-7.064;2023-06-10T11:47:34;2.72;;;1.38;;
60239;SDS011;46102;39.012;-7.064;2023-06-10T11:49:35;2.72;;;1.58;;
60239;SDS011;46102;39.012;-7.064;2023-06-10T11:51:36;5.97;;;1.10;;
60239;SDS011;46102;39.012;-7.064;2023-06-10T11:53:39;1.60;;;1.08;;
60239;SDS011;46102;39.012;-7.064;2023-06-10T11:55:43;4.18;;;1.08;;
60239;SDS011;46102;39.012;-7.064;2023-06-10T11:57:48;2.90;;;1.13;;
60239;SDS011;46102;39.012;-7.064;2023-06-10T12:00:03;1.83;;;1.10;;
60239;SDS011;46102;39.012;-7.064;2023-06-10T12:02:15;3.15;;;1.10;;
60239;SDS011;46102;39.012;-7.064;2023-06-10T12:04:16;2.47;;;1.30;;
60239;SDS011;46102;39.012;-7.064;2023-06-10T12:06:21;4.55;;;1.40;;
60239;SDS011;46102;39.012;-7.064;2023-06-10T12:08:23;4.85;;;2.25;;
60239;SDS011;46102;39.012;-7.064;2023-06-10T12:10:24;3.03;;;1.13;;
60239;SDS011;46102;39.012;-7.064;2023-06-10T12:12:24;3.25;;;1.20;;
60239;SDS011;46102;39.012;-7.064;2023-06-10T12:16:53;3.15;;;1.20;;
60239;SDS011;46102;39.012;-7.064;2023-06-10T12:19:00;3.25;;;1.35;;
60239;SDS011;46102;39.012;-7.064;2023-06-10T12:21:03;3.53;;;1.38;;